sensor_id;sensor_type;location;lat;lon;timestamp;temperature;humidity
22469;DHT22;11401;50.792;4.352;2023-04-25T00:02:14;16.10;56.10
22469;DHT22;11401;50.792;4.352;2023-04-25T00:04:41;16.10;56.10
22469;DHT22;11401;50.792;4.352;2023-04-25T00:07:09;16.20;56.00
22469;DHT22;11401;50.792;4.352;2023-04-25T00:09:37;16.20;56.20
22469;DHT22;11401;50.792;4.352;2023-04-25T00:12:04;16.20;56.40
22469;DHT22;11401;50.792;4.352;2023-04-25T00:14:31;16.20;56.10
22469;DHT22;11401;50.792;4.352;2023-04-25T00:17:01;16.20;56.30
22469;DHT22;11401;50.792;4.352;2023-04-25T00:19:28;16.20;56.30
22469;DHT22;11401;50.792;4.352;2023-04-25T00:21:55;16.20;55.90
22469;DHT22;11401;50.792;4.352;2023-04-25T00:24:22;16.20;56.00
22469;DHT22;11401;50.792;4.352;2023-04-25T00:26:49;16.20;56.10
22469;DHT22;11401;50.792;4.352;2023-04-25T00:29:16;16.10;55.60
22469;DHT22;11401;50.792;4.352;2023-04-25T00:31:43;16.10;56.90
22469;DHT22;11401;50.792;4.352;2023-04-25T00:34:10;16.10;56.40
22469;DHT22;11401;50.792;4.352;2023-04-25T00:36:37;16.10;56.50
22469;DHT22;11401;50.792;4.352;2023-04-25T00:39:04;16.10;56.60
22469;DHT22;11401;50.792;4.352;2023-04-25T00:41:33;16.10;57.00
22469;DHT22;11401;50.792;4.352;2023-04-25T00:44:01;16.10;57.20
22469;DHT22;11401;50.792;4.352;2023-04-25T00:46:29;16.10;56.60
22469;DHT22;11401;50.792;4.352;2023-04-25T00:48:56;16.10;57.30
22469;DHT22;11401;50.792;4.352;2023-04-25T00:51:24;16.10;57.40
22469;DHT22;11401;50.792;4.352;2023-04-25T00:53:53;16.10;57.70
22469;DHT22;11401;50.792;4.352;2023-04-25T00:56:21;16.00;58.40
22469;DHT22;11401;50.792;4.352;2023-04-25T00:58:48;16.10;57.90
22469;DHT22;11401;50.792;4.352;2023-04-25T01:01:16;16.00;58.00
22469;DHT22;11401;50.792;4.352;2023-04-25T01:03:45;16.00;57.80
22469;DHT22;11401;50.792;4.352;2023-04-25T01:06:13;16.00;57.70
22469;DHT22;11401;50.792;4.352;2023-04-25T01:08:42;16.10;58.10
22469;DHT22;11401;50.792;4.352;2023-04-25T01:11:09;16.00;58.40
22469;DHT22;11401;50.792;4.352;2023-04-25T01:13:37;16.10;58.60
22469;DHT22;11401;50.792;4.352;2023-04-25T01:16:04;16.00;58.30
22469;DHT22;11401;50.792;4.352;2023-04-25T01:18:31;16.00;58.20
22469;DHT22;11401;50.792;4.352;2023-04-25T01:21:09;16.00;58.50
22469;DHT22;11401;50.792;4.352;2023-04-25T01:23:39;15.90;58.10
22469;DHT22;11401;50.792;4.352;2023-04-25T01:26:09;15.90;58.30
22469;DHT22;11401;50.792;4.352;2023-04-25T01:28:37;15.90;59.60
22469;DHT22;11401;50.792;4.352;2023-04-25T01:31:09;15.80;58.90
22469;DHT22;11401;50.792;4.352;2023-04-25T01:33:37;15.90;59.10
22469;DHT22;11401;50.792;4.352;2023-04-25T01:36:04;15.90;59.00
22469;DHT22;11401;50.792;4.352;2023-04-25T01:38:34;15.90;59.00
22469;DHT22;11401;50.792;4.352;2023-04-25T01:41:02;15.90;58.60
22469;DHT22;11401;50.792;4.352;2023-04-25T01:43:29;15.90;58.70
22469;DHT22;11401;50.792;4.352;2023-04-25T01:45:56;15.90;59.00
22469;DHT22;11401;50.792;4.352;2023-04-25T01:48:24;15.90;58.80
22469;DHT22;11401;50.792;4.352;2023-04-25T01:50:51;15.90;58.90
22469;DHT22;11401;50.792;4.352;2023-04-25T01:53:18;15.90;59.40
22469;DHT22;11401;50.792;4.352;2023-04-25T01:55:46;15.80;59.00
22469;DHT22;11401;50.792;4.352;2023-04-25T01:58:16;15.80;59.70
22469;DHT22;11401;50.792;4.352;2023-04-25T02:00:57;15.80;59.10
22469;DHT22;11401;50.792;4.352;2023-04-25T02:03:31;15.80;59.10
22469;DHT22;11401;50.792;4.352;2023-04-25T02:06:00;15.80;59.30
22469;DHT22;11401;50.792;4.352;2023-04-25T02:08:29;15.80;59.20
22469;DHT22;11401;50.792;4.352;2023-04-25T02:10:58;15.70;58.80
22469;DHT22;11401;50.792;4.352;2023-04-25T02:13:30;15.80;58.90
22469;DHT22;11401;50.792;4.352;2023-04-25T02:16:02;15.80;58.80
22469;DHT22;11401;50.792;4.352;2023-04-25T02:18:30;15.80;59.00
22469;DHT22;11401;50.792;4.352;2023-04-25T02:20:59;15.80;59.40
22469;DHT22;11401;50.792;4.352;2023-04-25T02:23:28;15.80;59.30
22469;DHT22;11401;50.792;4.352;2023-04-25T02:25:56;15.80;59.60
22469;DHT22;11401;50.792;4.352;2023-04-25T02:28:24;15.80;59.60
22469;DHT22;11401;50.792;4.352;2023-04-25T02:30:52;15.80;59.20
22469;DHT22;11401;50.792;4.352;2023-04-25T02:33:19;15.70;59.10
22469;DHT22;11401;50.792;4.352;2023-04-25T02:35:47;15.70;59.00
22469;DHT22;11401;50.792;4.352;2023-04-25T02:38:15;15.70;59.10
22469;DHT22;11401;50.792;4.352;2023-04-25T02:40:42;15.70;59.10
22469;DHT22;11401;50.792;4.352;2023-04-25T02:43:08;15.70;59.40
22469;DHT22;11401;50.792;4.352;2023-04-25T02:45:35;15.70;59.10
22469;DHT22;11401;50.792;4.352;2023-04-25T02:48:03;15.70;59.00
22469;DHT22;11401;50.792;4.352;2023-04-25T02:50:31;15.60;59.50
22469;DHT22;11401;50.792;4.352;2023-04-25T02:52:59;15.70;59.20
22469;DHT22;11401;50.792;4.352;2023-04-25T02:55:33;15.70;59.40
22469;DHT22;11401;50.792;4.352;2023-04-25T02:58:04;15.70;59.30
22469;DHT22;11401;50.792;4.352;2023-04-25T03:00:44;15.70;59.40
22469;DHT22;11401;50.792;4.352;2023-04-25T03:03:11;15.60;59.50
22469;DHT22;11401;50.792;4.352;2023-04-25T03:05:38;15.60;59.60
22469;DHT22;11401;50.792;4.352;2023-04-25T03:08:06;15.60;59.70
22469;DHT22;11401;50.792;4.352;2023-04-25T03:10:34;15.60;59.50
22469;DHT22;11401;50.792;4.352;2023-04-25T03:13:04;15.60;59.70
22469;DHT22;11401;50.792;4.352;2023-04-25T03:15:33;15.60;60.30
22469;DHT22;11401;50.792;4.352;2023-04-25T03:18:00;15.60;59.80
22469;DHT22;11401;50.792;4.352;2023-04-25T03:20:27;15.60;59.70
22469;DHT22;11401;50.792;4.352;2023-04-25T03:22:56;15.60;60.20
22469;DHT22;11401;50.792;4.352;2023-04-25T03:25:23;15.60;59.90
22469;DHT22;11401;50.792;4.352;2023-04-25T03:27:50;15.60;59.50
22469;DHT22;11401;50.792;4.352;2023-04-25T03:30:17;15.60;59.90
22469;DHT22;11401;50.792;4.352;2023-04-25T03:32:45;15.60;60.10
22469;DHT22;11401;50.792;4.352;2023-04-25T03:35:15;15.70;59.80
22469;DHT22;11401;50.792;4.352;2023-04-25T03:37:42;15.60;60.60
22469;DHT22;11401;50.792;4.352;2023-04-25T03:40:17;15.60;60.50
22469;DHT22;11401;50.792;4.352;2023-04-25T03:43:10;15.60;60.00
22469;DHT22;11401;50.792;4.352;2023-04-25T03:45:42;15.50;60.00
22469;DHT22;11401;50.792;4.352;2023-04-25T03:48:09;15.50;59.90
22469;DHT22;11401;50.792;4.352;2023-04-25T03:50:36;15.50;60.40
22469;DHT22;11401;50.792;4.352;2023-04-25T03:53:04;15.50;60.10
22469;DHT22;11401;50.792;4.352;2023-04-25T03:55:46;15.50;60.20
22469;DHT22;11401;50.792;4.352;2023-04-25T03:58:13;15.50;60.20
22469;DHT22;11401;50.792;4.352;2023-04-25T04:00:40;15.50;59.80
22469;DHT22;11401;50.792;4.352;2023-04-25T04:03:07;15.50;59.90
22469;DHT22;11401;50.792;4.352;2023-04-25T04:05:34;15.50;59.90
22469;DHT22;11401;50.792;4.352;2023-04-25T04:08:01;15.40;59.80
22469;DHT22;11401;50.792;4.352;2023-04-25T04:10:29;15.50;59.80
22469;DHT22;11401;50.792;4.352;2023-04-25T04:12:56;15.40;60.00
22469;DHT22;11401;50.792;4.352;2023-04-25T04:15:23;15.50;59.80
22469;DHT22;11401;50.792;4.352;2023-04-25T04:17:50;15.50;59.50
22469;DHT22;11401;50.792;4.352;2023-04-25T04:20:18;15.50;59.40
22469;DHT22;11401;50.792;4.352;2023-04-25T04:22:45;15.50;59.60
22469;DHT22;11401;50.792;4.352;2023-04-25T04:25:14;15.50;59.40
22469;DHT22;11401;50.792;4.352;2023-04-25T04:28:01;15.50;59.30
22469;DHT22;11401;50.792;4.352;2023-04-25T04:30:40;15.50;59.30
22469;DHT22;11401;50.792;4.352;2023-04-25T04:33:08;15.50;58.80
22469;DHT22;11401;50.792;4.352;2023-04-25T04:35:36;15.50;59.00
22469;DHT22;11401;50.792;4.352;2023-04-25T04:38:03;15.60;58.80
22469;DHT22;11401;50.792;4.352;2023-04-25T04:40:33;15.50;58.40
22469;DHT22;11401;50.792;4.352;2023-04-25T04:43:07;15.50;58.60
22469;DHT22;11401;50.792;4.352;2023-04-25T04:46:09;15.50;58.80
22469;DHT22;11401;50.792;4.352;2023-04-25T04:49:12;15.50;58.70
22469;DHT22;11401;50.792;4.352;2023-04-25T04:52:03;15.50;58.70
22469;DHT22;11401;50.792;4.352;2023-04-25T04:54:39;15.50;58.30
22469;DHT22;11401;50.792;4.352;2023-04-25T04:57:13;15.40;58.10
22469;DHT22;11401;50.792;4.352;2023-04-25T05:00:10;15.40;58.20
22469;DHT22;11401;50.792;4.352;2023-04-25T05:02:56;15.40;57.50
22469;DHT22;11401;50.792;4.352;2023-04-25T05:05:42;15.30;57.60
22469;DHT22;11401;50.792;4.352;2023-04-25T05:08:27;15.20;57.60
22469;DHT22;11401;50.792;4.352;2023-04-25T05:11:13;15.10;58.70
22469;DHT22;11401;50.792;4.352;2023-04-25T05:14:12;15.10;58.60
22469;DHT22;11401;50.792;4.352;2023-04-25T05:16:54;15.00;59.50
22469;DHT22;11401;50.792;4.352;2023-04-25T05:19:32;15.00;59.40
22469;DHT22;11401;50.792;4.352;2023-04-25T05:22:37;14.90;58.60
22469;DHT22;11401;50.792;4.352;2023-04-25T05:25:12;14.80;59.10
22469;DHT22;11401;50.792;4.352;2023-04-25T05:27:50;14.70;60.00
22469;DHT22;11401;50.792;4.352;2023-04-25T05:30:45;14.70;59.60
22469;DHT22;11401;50.792;4.352;2023-04-25T05:33:27;14.60;59.30
22469;DHT22;11401;50.792;4.352;2023-04-25T05:35:54;14.50;59.30
22469;DHT22;11401;50.792;4.352;2023-04-25T05:38:22;14.50;59.40
22469;DHT22;11401;50.792;4.352;2023-04-25T05:41:04;14.30;59.40
22469;DHT22;11401;50.792;4.352;2023-04-25T05:43:38;14.20;59.40
22469;DHT22;11401;50.792;4.352;2023-04-25T05:46:24;14.10;59.30
22469;DHT22;11401;50.792;4.352;2023-04-25T05:49:10;14.00;60.90
22469;DHT22;11401;50.792;4.352;2023-04-25T05:51:57;13.80;61.00
22469;DHT22;11401;50.792;4.352;2023-04-25T05:54:33;13.70;62.40
22469;DHT22;11401;50.792;4.352;2023-04-25T05:57:00;13.70;63.00
22469;DHT22;11401;50.792;4.352;2023-04-25T05:59:30;13.80;63.40
22469;DHT22;11401;50.792;4.352;2023-04-25T06:01:57;13.90;62.00
22469;DHT22;11401;50.792;4.352;2023-04-25T06:04:25;13.90;62.70
22469;DHT22;11401;50.792;4.352;2023-04-25T06:06:53;14.00;62.50
22469;DHT22;11401;50.792;4.352;2023-04-25T06:09:22;14.00;62.40
22469;DHT22;11401;50.792;4.352;2023-04-25T06:11:49;14.00;61.50
22469;DHT22;11401;50.792;4.352;2023-04-25T06:14:16;14.10;61.00
22469;DHT22;11401;50.792;4.352;2023-04-25T06:16:47;14.10;61.30
22469;DHT22;11401;50.792;4.352;2023-04-25T06:19:14;14.20;61.10
22469;DHT22;11401;50.792;4.352;2023-04-25T06:21:43;14.30;61.60
22469;DHT22;11401;50.792;4.352;2023-04-25T06:24:10;14.50;59.90
22469;DHT22;11401;50.792;4.352;2023-04-25T06:26:38;14.60;59.30
22469;DHT22;11401;50.792;4.352;2023-04-25T06:29:05;14.70;59.80
22469;DHT22;11401;50.792;4.352;2023-04-25T06:31:32;14.80;59.50
22469;DHT22;11401;50.792;4.352;2023-04-25T06:34:00;14.90;59.40
22469;DHT22;11401;50.792;4.352;2023-04-25T06:36:29;15.00;59.10
22469;DHT22;11401;50.792;4.352;2023-04-25T06:39:03;15.10;59.00
22469;DHT22;11401;50.792;4.352;2023-04-25T06:41:32;15.20;58.80
22469;DHT22;11401;50.792;4.352;2023-04-25T06:44:01;15.20;58.80
22469;DHT22;11401;50.792;4.352;2023-04-25T06:46:32;15.30;58.50
22469;DHT22;11401;50.792;4.352;2023-04-25T06:48:59;15.30;58.80
22469;DHT22;11401;50.792;4.352;2023-04-25T06:51:26;15.40;58.20
22469;DHT22;11401;50.792;4.352;2023-04-25T06:53:57;15.40;58.30
22469;DHT22;11401;50.792;4.352;2023-04-25T06:56:34;15.40;58.00
22469;DHT22;11401;50.792;4.352;2023-04-25T06:59:12;15.40;57.90
22469;DHT22;11401;50.792;4.352;2023-04-25T07:01:40;15.40;57.90
22469;DHT22;11401;50.792;4.352;2023-04-25T07:04:13;15.30;57.50
22469;DHT22;11401;50.792;4.352;2023-04-25T07:06:47;15.30;57.60
22469;DHT22;11401;50.792;4.352;2023-04-25T07:09:18;15.30;57.40
22469;DHT22;11401;50.792;4.352;2023-04-25T07:11:47;15.30;57.10
22469;DHT22;11401;50.792;4.352;2023-04-25T07:14:14;15.40;58.00
22469;DHT22;11401;50.792;4.352;2023-04-25T07:16:41;15.50;57.50
22469;DHT22;11401;50.792;4.352;2023-04-25T07:19:09;15.50;57.10
22469;DHT22;11401;50.792;4.352;2023-04-25T07:21:37;15.50;57.60
22469;DHT22;11401;50.792;4.352;2023-04-25T07:24:05;15.40;56.60
22469;DHT22;11401;50.792;4.352;2023-04-25T07:26:36;15.50;56.90
22469;DHT22;11401;50.792;4.352;2023-04-25T07:29:26;15.50;57.10
22469;DHT22;11401;50.792;4.352;2023-04-25T07:31:53;15.50;56.10
22469;DHT22;11401;50.792;4.352;2023-04-25T07:34:21;15.50;56.80
22469;DHT22;11401;50.792;4.352;2023-04-25T07:36:48;15.50;56.80
22469;DHT22;11401;50.792;4.352;2023-04-25T07:39:15;15.60;57.30
22469;DHT22;11401;50.792;4.352;2023-04-25T07:41:43;15.60;56.70
22469;DHT22;11401;50.792;4.352;2023-04-25T07:44:16;15.60;56.00
22469;DHT22;11401;50.792;4.352;2023-04-25T07:46:44;15.60;56.50
22469;DHT22;11401;50.792;4.352;2023-04-25T07:49:11;15.70;56.00
22469;DHT22;11401;50.792;4.352;2023-04-25T07:51:41;15.70;55.80
22469;DHT22;11401;50.792;4.352;2023-04-25T07:54:14;15.70;55.80
22469;DHT22;11401;50.792;4.352;2023-04-25T07:56:47;15.70;54.70
22469;DHT22;11401;50.792;4.352;2023-04-25T07:59:20;15.80;55.50
22469;DHT22;11401;50.792;4.352;2023-04-25T08:01:47;15.60;55.10
22469;DHT22;11401;50.792;4.352;2023-04-25T08:04:16;15.60;55.90
22469;DHT22;11401;50.792;4.352;2023-04-25T08:06:52;15.60;55.70
22469;DHT22;11401;50.792;4.352;2023-04-25T08:09:27;15.70;56.10
22469;DHT22;11401;50.792;4.352;2023-04-25T08:11:55;15.70;55.70
22469;DHT22;11401;50.792;4.352;2023-04-25T08:14:27;15.80;55.00
22469;DHT22;11401;50.792;4.352;2023-04-25T08:16:55;15.80;56.20
22469;DHT22;11401;50.792;4.352;2023-04-25T08:19:23;15.80;55.40
22469;DHT22;11401;50.792;4.352;2023-04-25T08:33:18;15.70;55.50
22469;DHT22;11401;50.792;4.352;2023-04-25T08:36:05;15.80;54.50
22469;DHT22;11401;50.792;4.352;2023-04-25T08:38:32;15.80;54.40
22469;DHT22;11401;50.792;4.352;2023-04-25T08:41:02;15.80;54.50
22469;DHT22;11401;50.792;4.352;2023-04-25T08:43:29;15.70;54.40
22469;DHT22;11401;50.792;4.352;2023-04-25T08:46:01;15.60;54.30
22469;DHT22;11401;50.792;4.352;2023-04-25T08:48:40;15.60;54.70
22469;DHT22;11401;50.792;4.352;2023-04-25T08:51:07;15.60;53.10
22469;DHT22;11401;50.792;4.352;2023-04-25T08:53:39;15.60;54.60
22469;DHT22;11401;50.792;4.352;2023-04-25T08:56:10;15.70;54.70
22469;DHT22;11401;50.792;4.352;2023-04-25T08:58:40;15.80;55.00
22469;DHT22;11401;50.792;4.352;2023-04-25T09:01:07;15.80;53.70
22469;DHT22;11401;50.792;4.352;2023-04-25T09:03:44;15.80;51.00
22469;DHT22;11401;50.792;4.352;2023-04-25T09:06:11;15.80;53.70
22469;DHT22;11401;50.792;4.352;2023-04-25T09:08:38;15.90;52.90
22469;DHT22;11401;50.792;4.352;2023-04-25T09:11:07;15.90;52.20
22469;DHT22;11401;50.792;4.352;2023-04-25T09:13:34;15.80;52.30
22469;DHT22;11401;50.792;4.352;2023-04-25T09:16:10;15.90;52.00
22469;DHT22;11401;50.792;4.352;2023-04-25T09:18:50;16.00;52.80
22469;DHT22;11401;50.792;4.352;2023-04-25T09:21:22;16.10;52.60
22469;DHT22;11401;50.792;4.352;2023-04-25T09:23:50;16.10;52.30
22469;DHT22;11401;50.792;4.352;2023-04-25T09:26:20;16.20;53.70
22469;DHT22;11401;50.792;4.352;2023-04-25T09:28:49;16.20;52.40
22469;DHT22;11401;50.792;4.352;2023-04-25T09:31:33;16.20;52.20
22469;DHT22;11401;50.792;4.352;2023-04-25T09:34:02;16.30;53.00
22469;DHT22;11401;50.792;4.352;2023-04-25T09:36:39;16.30;51.30
22469;DHT22;11401;50.792;4.352;2023-04-25T09:39:33;16.30;51.50
22469;DHT22;11401;50.792;4.352;2023-04-25T09:42:09;16.40;51.80
22469;DHT22;11401;50.792;4.352;2023-04-25T09:44:36;16.40;49.70
22469;DHT22;11401;50.792;4.352;2023-04-25T09:47:03;16.20;51.00
22469;DHT22;11401;50.792;4.352;2023-04-25T09:49:31;16.20;52.00
22469;DHT22;11401;50.792;4.352;2023-04-25T09:52:18;16.40;53.30
22469;DHT22;11401;50.792;4.352;2023-04-25T09:54:59;16.50;51.90
22469;DHT22;11401;50.792;4.352;2023-04-25T09:57:32;16.50;51.60
22469;DHT22;11401;50.792;4.352;2023-04-25T10:00:00;16.50;50.40
22469;DHT22;11401;50.792;4.352;2023-04-25T10:02:42;16.50;52.40
22469;DHT22;11401;50.792;4.352;2023-04-25T10:05:16;16.40;50.00
22469;DHT22;11401;50.792;4.352;2023-04-25T10:07:44;16.40;51.30
22469;DHT22;11401;50.792;4.352;2023-04-25T10:10:15;16.20;50.20
22469;DHT22;11401;50.792;4.352;2023-04-25T10:12:44;16.20;51.30
22469;DHT22;11401;50.792;4.352;2023-04-25T10:15:12;16.30;52.40
22469;DHT22;11401;50.792;4.352;2023-04-25T10:17:40;16.40;52.30
22469;DHT22;11401;50.792;4.352;2023-04-25T10:20:08;16.60;51.90
22469;DHT22;11401;50.792;4.352;2023-04-25T10:22:41;16.60;50.50
22469;DHT22;11401;50.792;4.352;2023-04-25T10:25:08;16.70;50.10
22469;DHT22;11401;50.792;4.352;2023-04-25T10:27:36;16.60;48.30
22469;DHT22;11401;50.792;4.352;2023-04-25T10:30:13;16.50;49.80
22469;DHT22;11401;50.792;4.352;2023-04-25T10:32:42;16.30;49.60
22469;DHT22;11401;50.792;4.352;2023-04-25T10:35:27;16.40;50.10
22469;DHT22;11401;50.792;4.352;2023-04-25T10:38:04;16.50;50.70
22469;DHT22;11401;50.792;4.352;2023-04-25T10:40:33;16.80;51.80
22469;DHT22;11401;50.792;4.352;2023-04-25T10:43:36;16.70;48.10
22469;DHT22;11401;50.792;4.352;2023-04-25T10:46:28;16.70;47.00
22469;DHT22;11401;50.792;4.352;2023-04-25T10:49:00;16.70;46.70
22469;DHT22;11401;50.792;4.352;2023-04-25T10:51:32;16.80;48.50
22469;DHT22;11401;50.792;4.352;2023-04-25T10:54:19;16.80;48.50
22469;DHT22;11401;50.792;4.352;2023-04-25T10:56:48;16.90;50.50
22469;DHT22;11401;50.792;4.352;2023-04-25T10:59:18;16.90;47.80
22469;DHT22;11401;50.792;4.352;2023-04-25T11:01:52;16.90;49.10
22469;DHT22;11401;50.792;4.352;2023-04-25T11:04:30;17.00;49.60
22469;DHT22;11401;50.792;4.352;2023-04-25T11:09:49;17.10;48.20
22469;DHT22;11401;50.792;4.352;2023-04-25T11:12:16;16.70;49.00
22469;DHT22;11401;50.792;4.352;2023-04-25T11:14:44;16.70;52.30
22469;DHT22;11401;50.792;4.352;2023-04-25T11:17:11;16.80;51.50
22469;DHT22;11401;50.792;4.352;2023-04-25T11:19:38;16.80;52.20
22469;DHT22;11401;50.792;4.352;2023-04-25T11:22:05;16.80;52.30
22469;DHT22;11401;50.792;4.352;2023-04-25T11:24:34;16.80;52.10
22469;DHT22;11401;50.792;4.352;2023-04-25T11:27:02;16.90;52.00
22469;DHT22;11401;50.792;4.352;2023-04-25T11:29:31;16.90;52.40
22469;DHT22;11401;50.792;4.352;2023-04-25T11:31:59;17.00;53.70
22469;DHT22;11401;50.792;4.352;2023-04-25T11:34:29;17.00;51.10
22469;DHT22;11401;50.792;4.352;2023-04-25T11:37:01;17.00;50.10
22469;DHT22;11401;50.792;4.352;2023-04-25T11:39:29;17.00;51.80
22469;DHT22;11401;50.792;4.352;2023-04-25T11:41:56;17.00;49.50
22469;DHT22;11401;50.792;4.352;2023-04-25T11:44:23;16.70;47.10
22469;DHT22;11401;50.792;4.352;2023-04-25T11:46:50;16.70;48.60
22469;DHT22;11401;50.792;4.352;2023-04-25T11:49:18;16.80;50.70
22469;DHT22;11401;50.792;4.352;2023-04-25T11:51:46;16.80;50.90
22469;DHT22;11401;50.792;4.352;2023-04-25T11:54:14;16.80;48.90
22469;DHT22;11401;50.792;4.352;2023-04-25T11:56:45;16.70;50.10
22469;DHT22;11401;50.792;4.352;2023-04-25T11:59:13;16.70;49.20
22469;DHT22;11401;50.792;4.352;2023-04-25T12:01:46;16.70;47.50
22469;DHT22;11401;50.792;4.352;2023-04-25T12:06:43;16.60;49.90
22469;DHT22;11401;50.792;4.352;2023-04-25T12:09:11;16.60;47.80
22469;DHT22;11401;50.792;4.352;2023-04-25T12:11:44;16.60;49.20
22469;DHT22;11401;50.792;4.352;2023-04-25T12:14:11;16.40;45.00
22469;DHT22;11401;50.792;4.352;2023-04-25T12:16:46;16.30;47.80
22469;DHT22;11401;50.792;4.352;2023-04-25T12:19:14;16.30;47.80
22469;DHT22;11401;50.792;4.352;2023-04-25T12:21:43;16.40;47.60
22469;DHT22;11401;50.792;4.352;2023-04-25T12:24:20;16.50;48.90
22469;DHT22;11401;50.792;4.352;2023-04-25T12:26:53;16.40;44.90
22469;DHT22;11401;50.792;4.352;2023-04-25T12:29:27;16.40;48.00
22469;DHT22;11401;50.792;4.352;2023-04-25T12:32:04;16.40;47.70
22469;DHT22;11401;50.792;4.352;2023-04-25T12:34:32;16.60;49.70
22469;DHT22;11401;50.792;4.352;2023-04-25T12:37:01;16.40;46.80
22469;DHT22;11401;50.792;4.352;2023-04-25T12:39:28;16.50;49.40
22469;DHT22;11401;50.792;4.352;2023-04-25T12:41:55;16.60;49.60
22469;DHT22;11401;50.792;4.352;2023-04-25T12:44:22;16.60;48.80
22469;DHT22;11401;50.792;4.352;2023-04-25T12:46:49;16.60;49.40
22469;DHT22;11401;50.792;4.352;2023-04-25T12:49:16;16.60;50.80
22469;DHT22;11401;50.792;4.352;2023-04-25T12:51:45;16.60;46.70
22469;DHT22;11401;50.792;4.352;2023-04-25T12:54:12;16.60;47.40
22469;DHT22;11401;50.792;4.352;2023-04-25T12:56:41;16.60;45.90
22469;DHT22;11401;50.792;4.352;2023-04-25T12:59:09;16.60;43.70
22469;DHT22;11401;50.792;4.352;2023-04-25T13:01:36;16.60;48.90
22469;DHT22;11401;50.792;4.352;2023-04-25T13:04:04;16.60;45.90
22469;DHT22;11401;50.792;4.352;2023-04-25T13:06:31;16.50;46.00
22469;DHT22;11401;50.792;4.352;2023-04-25T13:08:58;16.30;47.90
22469;DHT22;11401;50.792;4.352;2023-04-25T13:11:25;16.30;47.20
22469;DHT22;11401;50.792;4.352;2023-04-25T13:13:52;16.50;47.10
22469;DHT22;11401;50.792;4.352;2023-04-25T13:16:20;16.60;48.60
22469;DHT22;11401;50.792;4.352;2023-04-25T13:18:48;16.80;48.90
22469;DHT22;11401;50.792;4.352;2023-04-25T13:21:15;16.70;45.30
22469;DHT22;11401;50.792;4.352;2023-04-25T13:23:42;16.50;46.00
22469;DHT22;11401;50.792;4.352;2023-04-25T13:26:11;16.60;48.10
22469;DHT22;11401;50.792;4.352;2023-04-25T13:28:38;16.70;48.30
22469;DHT22;11401;50.792;4.352;2023-04-25T13:31:10;16.70;47.90
22469;DHT22;11401;50.792;4.352;2023-04-25T13:33:37;16.60;48.60
22469;DHT22;11401;50.792;4.352;2023-04-25T13:36:04;16.60;48.10
22469;DHT22;11401;50.792;4.352;2023-04-25T13:38:32;16.50;46.10
22469;DHT22;11401;50.792;4.352;2023-04-25T13:40:59;16.50;47.10
22469;DHT22;11401;50.792;4.352;2023-04-25T13:43:27;16.50;48.20
22469;DHT22;11401;50.792;4.352;2023-04-25T13:45:54;16.50;46.30
22469;DHT22;11401;50.792;4.352;2023-04-25T13:48:22;16.50;46.40
22469;DHT22;11401;50.792;4.352;2023-04-25T13:50:50;16.50;49.00
22469;DHT22;11401;50.792;4.352;2023-04-25T13:53:17;16.70;50.00
22469;DHT22;11401;50.792;4.352;2023-04-25T13:55:44;16.90;49.60
22469;DHT22;11401;50.792;4.352;2023-04-25T13:58:11;16.90;46.10
22469;DHT22;11401;50.792;4.352;2023-04-25T14:00:39;17.00;46.80
22469;DHT22;11401;50.792;4.352;2023-04-25T14:03:07;16.90;45.10
22469;DHT22;11401;50.792;4.352;2023-04-25T14:05:36;16.90;47.00
22469;DHT22;11401;50.792;4.352;2023-04-25T14:08:08;17.10;52.60
22469;DHT22;11401;50.792;4.352;2023-04-25T14:10:36;17.20;47.70
22469;DHT22;11401;50.792;4.352;2023-04-25T14:13:04;17.10;47.80
22469;DHT22;11401;50.792;4.352;2023-04-25T14:15:31;17.20;47.90
22469;DHT22;11401;50.792;4.352;2023-04-25T14:17:59;17.10;45.80
22469;DHT22;11401;50.792;4.352;2023-04-25T14:20:27;16.80;42.30
22469;DHT22;11401;50.792;4.352;2023-04-25T14:22:54;16.70;48.40
22469;DHT22;11401;50.792;4.352;2023-04-25T14:25:23;16.70;46.30
22469;DHT22;11401;50.792;4.352;2023-04-25T14:27:51;16.80;48.10
22469;DHT22;11401;50.792;4.352;2023-04-25T14:30:19;16.80;44.20
22469;DHT22;11401;50.792;4.352;2023-04-25T14:32:49;17.00;44.70
22469;DHT22;11401;50.792;4.352;2023-04-25T14:35:16;17.00;45.90
22469;DHT22;11401;50.792;4.352;2023-04-25T14:37:44;16.90;43.20
22469;DHT22;11401;50.792;4.352;2023-04-25T14:40:11;16.90;46.00
22469;DHT22;11401;50.792;4.352;2023-04-25T14:42:40;16.90;44.30
22469;DHT22;11401;50.792;4.352;2023-04-25T14:45:08;16.90;44.50
22469;DHT22;11401;50.792;4.352;2023-04-25T14:47:38;17.00;47.30
22469;DHT22;11401;50.792;4.352;2023-04-25T14:50:07;17.10;47.90
22469;DHT22;11401;50.792;4.352;2023-04-25T14:52:35;17.10;43.80
22469;DHT22;11401;50.792;4.352;2023-04-25T14:55:03;17.10;45.50
22469;DHT22;11401;50.792;4.352;2023-04-25T14:57:32;17.20;46.80
22469;DHT22;11401;50.792;4.352;2023-04-25T15:00:00;17.10;43.80
22469;DHT22;11401;50.792;4.352;2023-04-25T15:02:28;17.00;42.90
22469;DHT22;11401;50.792;4.352;2023-04-25T15:04:55;17.00;46.20
22469;DHT22;11401;50.792;4.352;2023-04-25T15:07:25;17.00;46.40
22469;DHT22;11401;50.792;4.352;2023-04-25T15:09:52;17.10;47.70
22469;DHT22;11401;50.792;4.352;2023-04-25T15:12:20;17.20;45.60
22469;DHT22;11401;50.792;4.352;2023-04-25T15:14:47;17.10;45.30
22469;DHT22;11401;50.792;4.352;2023-04-25T15:17:14;17.10;44.70
22469;DHT22;11401;50.792;4.352;2023-04-25T15:19:41;17.00;44.60
22469;DHT22;11401;50.792;4.352;2023-04-25T15:22:09;17.00;45.70
22469;DHT22;11401;50.792;4.352;2023-04-25T15:24:36;17.00;44.40
22469;DHT22;11401;50.792;4.352;2023-04-25T15:27:03;16.90;43.90
22469;DHT22;11401;50.792;4.352;2023-04-25T15:29:31;16.80;45.40
22469;DHT22;11401;50.792;4.352;2023-04-25T15:31:58;16.90;47.70
22469;DHT22;11401;50.792;4.352;2023-04-25T15:34:25;17.10;48.70
22469;DHT22;11401;50.792;4.352;2023-04-25T15:36:52;17.10;45.10
22469;DHT22;11401;50.792;4.352;2023-04-25T15:39:19;17.10;44.80
22469;DHT22;11401;50.792;4.352;2023-04-25T15:41:46;17.00;44.60
22469;DHT22;11401;50.792;4.352;2023-04-25T15:44:14;17.00;45.20
22469;DHT22;11401;50.792;4.352;2023-04-25T15:46:41;17.00;44.10
22469;DHT22;11401;50.792;4.352;2023-04-25T15:49:09;16.80;45.10
22469;DHT22;11401;50.792;4.352;2023-04-25T15:51:37;16.80;44.30
22469;DHT22;11401;50.792;4.352;2023-04-25T15:54:04;16.60;44.70
22469;DHT22;11401;50.792;4.352;2023-04-25T15:56:31;16.70;45.00
22469;DHT22;11401;50.792;4.352;2023-04-25T15:58:58;16.80;45.60
22469;DHT22;11401;50.792;4.352;2023-04-25T16:01:25;16.80;45.60
22469;DHT22;11401;50.792;4.352;2023-04-25T16:03:57;16.90;47.00
22469;DHT22;11401;50.792;4.352;2023-04-25T16:06:25;16.80;45.30
22469;DHT22;11401;50.792;4.352;2023-04-25T16:08:53;16.90;47.50